sensor_id;sensor_type;location;lat;lon;timestamp;P1;durP1;ratioP1;P2;durP2;ratioP2
26253;SDS011;53339;51.378;0.094;2024-02-26T00:00:14;11.90;;;4.85;;
26253;SDS011;53339;51.378;0.094;2024-02-26T00:02:42;10.52;;;7.38;;
26253;SDS011;53339;51.378;0.094;2024-02-26T00:05:10;12.75;;;5.55;;
26253;SDS011;53339;51.378;0.094;2024-02-26T00:07:38;11.38;;;7.65;;
26253;SDS011;53339;51.378;0.094;2024-02-26T00:10:07;16.27;;;6.03;;
26253;SDS011;53339;51.378;0.094;2024-02-26T00:12:35;18.33;;;9.82;;
26253;SDS011;53339;51.378;0.094;2024-02-26T00:15:04;19.58;;;5.95;;
26253;SDS011;53339;51.378;0.094;2024-02-26T00:17:32;12.90;;;8.57;;
26253;SDS011;53339;51.378;0.094;2024-02-26T00:20:04;15.13;;;5.15;;
26253;SDS011;53339;51.378;0.094;2024-02-26T00:22:36;15.40;;;8.40;;
26253;SDS011;53339;51.378;0.094;2024-02-26T00:25:04;15.75;;;9.13;;
26253;SDS011;53339;51.378;0.094;2024-02-26T00:27:32;13.85;;;7.65;;
26253;SDS011;53339;51.378;0.094;2024-02-26T00:29:59;16.45;;;8.98;;
26253;SDS011;53339;51.378;0.094;2024-02-26T00:32:27;13.02;;;6.45;;
26253;SDS011;53339;51.378;0.094;2024-02-26T00:34:55;17.08;;;8.88;;
26253;SDS011;53339;51.378;0.094;2024-02-26T00:37:22;15.20;;;9.18;;
26253;SDS011;53339;51.378;0.094;2024-02-26T00:39:50;31.15;;;10.05;;
26253;SDS011;53339;51.378;0.094;2024-02-26T00:42:20;15.27;;;5.80;;
26253;SDS011;53339;51.378;0.094;2024-02-26T00:44:47;20.38;;;9.93;;
26253;SDS011;53339;51.378;0.094;2024-02-26T00:47:15;19.40;;;9.45;;
26253;SDS011;53339;51.378;0.094;2024-02-26T00:49:43;16.75;;;8.98;;
26253;SDS011;53339;51.378;0.094;2024-02-26T00:52:10;17.33;;;9.30;;
26253;SDS011;53339;51.378;0.094;2024-02-26T00:54:38;14.25;;;5.50;;
26253;SDS011;53339;51.378;0.094;2024-02-26T00:57:06;18.25;;;9.25;;
26253;SDS011;53339;51.378;0.094;2024-02-26T00:59:33;17.00;;;8.95;;
26253;SDS011;53339;51.378;0.094;2024-02-26T01:02:01;16.50;;;6.00;;
26253;SDS011;53339;51.378;0.094;2024-02-26T01:04:29;14.30;;;9.63;;
26253;SDS011;53339;51.378;0.094;2024-02-26T01:06:57;11.75;;;5.53;;
26253;SDS011;53339;51.378;0.094;2024-02-26T01:09:24;16.63;;;7.15;;
26253;SDS011;53339;51.378;0.094;2024-02-26T01:11:52;14.43;;;5.47;;
26253;SDS011;53339;51.378;0.094;2024-02-26T01:14:20;14.73;;;6.30;;
26253;SDS011;53339;51.378;0.094;2024-02-26T01:16:47;15.15;;;5.40;;
26253;SDS011;53339;51.378;0.094;2024-02-26T01:19:15;21.63;;;6.88;;
26253;SDS011;53339;51.378;0.094;2024-02-26T01:21:43;14.85;;;8.38;;
26253;SDS011;53339;51.378;0.094;2024-02-26T01:24:10;18.95;;;8.90;;
26253;SDS011;53339;51.378;0.094;2024-02-26T01:26:40;15.90;;;6.30;;
26253;SDS011;53339;51.378;0.094;2024-02-26T01:29:08;19.10;;;5.82;;
26253;SDS011;53339;51.378;0.094;2024-02-26T01:31:35;14.70;;;6.15;;
26253;SDS011;53339;51.378;0.094;2024-02-26T01:34:03;15.63;;;7.85;;
26253;SDS011;53339;51.378;0.094;2024-02-26T01:36:31;17.63;;;7.07;;
26253;SDS011;53339;51.378;0.094;2024-02-26T01:38:58;16.25;;;7.30;;
26253;SDS011;53339;51.378;0.094;2024-02-26T01:41:26;12.68;;;5.32;;
26253;SDS011;53339;51.378;0.094;2024-02-26T01:43:54;11.93;;;5.47;;
26253;SDS011;53339;51.378;0.094;2024-02-26T01:46:21;15.65;;;7.80;;
26253;SDS011;53339;51.378;0.094;2024-02-26T01:48:49;14.60;;;7.63;;
26253;SDS011;53339;51.378;0.094;2024-02-26T01:51:17;15.15;;;9.10;;
26253;SDS011;53339;51.378;0.094;2024-02-26T01:53:45;16.33;;;10.13;;
26253;SDS011;53339;51.378;0.094;2024-02-26T01:56:13;11.73;;;6.35;;
26253;SDS011;53339;51.378;0.094;2024-02-26T01:58:42;18.67;;;11.60;;
26253;SDS011;53339;51.378;0.094;2024-02-26T02:01:11;19.00;;;5.93;;
26253;SDS011;53339;51.378;0.094;2024-02-26T02:03:40;17.17;;;5.88;;
26253;SDS011;53339;51.378;0.094;2024-02-26T02:06:08;17.25;;;8.38;;
26253;SDS011;53339;51.378;0.094;2024-02-26T02:08:37;13.55;;;6.53;;
26253;SDS011;53339;51.378;0.094;2024-02-26T02:11:05;15.77;;;8.68;;
26253;SDS011;53339;51.378;0.094;2024-02-26T02:13:34;13.35;;;6.15;;
26253;SDS011;53339;51.378;0.094;2024-02-26T02:16:01;14.43;;;5.65;;
26253;SDS011;53339;51.378;0.094;2024-02-26T02:18:29;16.67;;;6.03;;
26253;SDS011;53339;51.378;0.094;2024-02-26T02:20:57;20.85;;;8.80;;
26253;SDS011;53339;51.378;0.094;2024-02-26T02:23:27;18.20;;;10.40;;
26253;SDS011;53339;51.378;0.094;2024-02-26T02:25:55;9.82;;;4.65;;
26253;SDS011;53339;51.378;0.094;2024-02-26T02:28:25;15.20;;;7.03;;
26253;SDS011;53339;51.378;0.094;2024-02-26T02:30:54;14.07;;;8.02;;
26253;SDS011;53339;51.378;0.094;2024-02-26T02:33:23;17.48;;;7.47;;
26253;SDS011;53339;51.378;0.094;2024-02-26T02:35:53;13.43;;;9.25;;
26253;SDS011;53339;51.378;0.094;2024-02-26T02:38:22;12.65;;;5.20;;
26253;SDS011;53339;51.378;0.094;2024-02-26T02:40:50;18.05;;;8.63;;
26253;SDS011;53339;51.378;0.094;2024-02-26T02:43:18;14.82;;;6.00;;
26253;SDS011;53339;51.378;0.094;2024-02-26T02:45:46;10.85;;;6.55;;
26253;SDS011;53339;51.378;0.094;2024-02-26T02:48:14;15.98;;;9.63;;
26253;SDS011;53339;51.378;0.094;2024-02-26T02:50:41;14.35;;;7.47;;
26253;SDS011;53339;51.378;0.094;2024-02-26T02:53:09;12.93;;;8.25;;
26253;SDS011;53339;51.378;0.094;2024-02-26T02:55:37;13.88;;;9.52;;
26253;SDS011;53339;51.378;0.094;2024-02-26T02:58:04;11.48;;;4.75;;
26253;SDS011;53339;51.378;0.094;2024-02-26T03:00:32;14.55;;;12.02;;
26253;SDS011;53339;51.378;0.094;2024-02-26T03:03:00;16.75;;;8.35;;
26253;SDS011;53339;51.378;0.094;2024-02-26T03:05:27;10.02;;;4.88;;
26253;SDS011;53339;51.378;0.094;2024-02-26T03:07:55;13.93;;;8.63;;
26253;SDS011;53339;51.378;0.094;2024-02-26T03:10:23;11.13;;;7.53;;
26253;SDS011;53339;51.378;0.094;2024-02-26T03:12:50;9.85;;;7.35;;
26253;SDS011;53339;51.378;0.094;2024-02-26T03:15:18;10.70;;;7.78;;
26253;SDS011;53339;51.378;0.094;2024-02-26T03:17:46;12.40;;;7.28;;
26253;SDS011;53339;51.378;0.094;2024-02-26T03:20:13;8.95;;;4.38;;
26253;SDS011;53339;51.378;0.094;2024-02-26T03:22:41;11.18;;;4.78;;
26253;SDS011;53339;51.378;0.094;2024-02-26T03:25:09;16.73;;;4.13;;
26253;SDS011;53339;51.378;0.094;2024-02-26T03:27:36;12.45;;;5.13;;
26253;SDS011;53339;51.378;0.094;2024-02-26T03:30:04;10.43;;;4.03;;
26253;SDS011;53339;51.378;0.094;2024-02-26T03:32:32;8.43;;;6.88;;
26253;SDS011;53339;51.378;0.094;2024-02-26T03:35:00;11.00;;;7.18;;
26253;SDS011;53339;51.378;0.094;2024-02-26T03:37:27;9.50;;;4.30;;
26253;SDS011;53339;51.378;0.094;2024-02-26T03:39:55;12.63;;;8.70;;
26253;SDS011;53339;51.378;0.094;2024-02-26T03:42:24;10.90;;;4.25;;
26253;SDS011;53339;51.378;0.094;2024-02-26T03:44:51;13.38;;;7.05;;
26253;SDS011;53339;51.378;0.094;2024-02-26T03:47:19;12.10;;;5.18;;
26253;SDS011;53339;51.378;0.094;2024-02-26T03:49:47;18.80;;;5.32;;
26253;SDS011;53339;51.378;0.094;2024-02-26T03:52:15;8.95;;;6.05;;
26253;SDS011;53339;51.378;0.094;2024-02-26T03:54:43;11.02;;;7.20;;
26253;SDS011;53339;51.378;0.094;2024-02-26T03:57:10;9.57;;;4.63;;
26253;SDS011;53339;51.378;0.094;2024-02-26T03:59:38;8.88;;;4.40;;
26253;SDS011;53339;51.378;0.094;2024-02-26T04:02:06;10.50;;;4.15;;
26253;SDS011;53339;51.378;0.094;2024-02-26T04:04:34;11.02;;;3.97;;
26253;SDS011;53339;51.378;0.094;2024-02-26T04:07:02;10.98;;;4.18;;
26253;SDS011;53339;51.378;0.094;2024-02-26T04:09:33;11.68;;;6.47;;
26253;SDS011;53339;51.378;0.094;2024-02-26T04:12:00;10.25;;;7.85;;
26253;SDS011;53339;51.378;0.094;2024-02-26T04:14:28;13.25;;;7.82;;
26253;SDS011;53339;51.378;0.094;2024-02-26T04:16:56;10.70;;;4.90;;
26253;SDS011;53339;51.378;0.094;2024-02-26T04:19:24;7.90;;;4.07;;
26253;SDS011;53339;51.378;0.094;2024-02-26T04:21:51;10.10;;;4.57;;
26253;SDS011;53339;51.378;0.094;2024-02-26T04:24:19;8.27;;;4.50;;
26253;SDS011;53339;51.378;0.094;2024-02-26T04:26:46;8.55;;;4.38;;
26253;SDS011;53339;51.378;0.094;2024-02-26T04:29:14;7.25;;;4.20;;
26253;SDS011;53339;51.378;0.094;2024-02-26T04:31:42;9.48;;;4.47;;
26253;SDS011;53339;51.378;0.094;2024-02-26T04:34:10;10.30;;;8.98;;
26253;SDS011;53339;51.378;0.094;2024-02-26T04:39:08;6.43;;;3.47;;
26253;SDS011;53339;51.378;0.094;2024-02-26T04:41:35;9.93;;;5.65;;
26253;SDS011;53339;51.378;0.094;2024-02-26T04:44:03;14.43;;;6.35;;
26253;SDS011;53339;51.378;0.094;2024-02-26T04:46:31;10.15;;;4.65;;
26253;SDS011;53339;51.378;0.094;2024-02-26T04:48:58;8.13;;;3.45;;
26253;SDS011;53339;51.378;0.094;2024-02-26T04:51:26;8.77;;;6.55;;
26253;SDS011;53339;51.378;0.094;2024-02-26T04:53:54;8.80;;;5.68;;
26253;SDS011;53339;51.378;0.094;2024-02-26T04:56:21;10.27;;;7.20;;
26253;SDS011;53339;51.378;0.094;2024-02-26T04:58:49;6.97;;;3.42;;
26253;SDS011;53339;51.378;0.094;2024-02-26T05:01:17;18.25;;;3.78;;
26253;SDS011;53339;51.378;0.094;2024-02-26T05:03:45;7.47;;;5.55;;
26253;SDS011;53339;51.378;0.094;2024-02-26T05:06:13;8.23;;;3.80;;
26253;SDS011;53339;51.378;0.094;2024-02-26T05:08:41;7.75;;;6.40;;
26253;SDS011;53339;51.378;0.094;2024-02-26T05:11:08;6.22;;;3.67;;
26253;SDS011;53339;51.378;0.094;2024-02-26T05:13:36;8.48;;;7.13;;
26253;SDS011;53339;51.378;0.094;2024-02-26T05:16:04;7.15;;;3.35;;
26253;SDS011;53339;51.378;0.094;2024-02-26T05:18:32;7.30;;;5.05;;
26253;SDS011;53339;51.378;0.094;2024-02-26T05:20:59;5.82;;;2.92;;
26253;SDS011;53339;51.378;0.094;2024-02-26T05:23:27;6.03;;;2.97;;
26253;SDS011;53339;51.378;0.094;2024-02-26T05:25:54;6.80;;;5.00;;
26253;SDS011;53339;51.378;0.094;2024-02-26T05:28:22;10.32;;;3.65;;
26253;SDS011;53339;51.378;0.094;2024-02-26T05:30:50;7.00;;;3.50;;
26253;SDS011;53339;51.378;0.094;2024-02-26T05:33:17;8.00;;;2.20;;
26253;SDS011;53339;51.378;0.094;2024-02-26T05:35:45;6.88;;;3.45;;
26253;SDS011;53339;51.378;0.094;2024-02-26T05:38:13;8.20;;;5.18;;
26253;SDS011;53339;51.378;0.094;2024-02-26T05:40:40;6.80;;;2.75;;
26253;SDS011;53339;51.378;0.094;2024-02-26T05:43:08;11.65;;;6.35;;
26253;SDS011;53339;51.378;0.094;2024-02-26T05:45:36;6.15;;;5.00;;
26253;SDS011;53339;51.378;0.094;2024-02-26T05:48:03;8.43;;;7.65;;
26253;SDS011;53339;51.378;0.094;2024-02-26T05:50:31;17.40;;;5.78;;
26253;SDS011;53339;51.378;0.094;2024-02-26T05:52:59;8.00;;;6.05;;
26253;SDS011;53339;51.378;0.094;2024-02-26T05:55:27;9.23;;;5.40;;
26253;SDS011;53339;51.378;0.094;2024-02-26T05:57:54;5.80;;;5.10;;
26253;SDS011;53339;51.378;0.094;2024-02-26T06:00:22;5.47;;;4.95;;
26253;SDS011;53339;51.378;0.094;2024-02-26T06:02:49;6.97;;;4.55;;
26253;SDS011;53339;51.378;0.094;2024-02-26T06:05:17;7.15;;;3.38;;
26253;SDS011;53339;51.378;0.094;2024-02-26T06:07:45;5.10;;;2.67;;
26253;SDS011;53339;51.378;0.094;2024-02-26T06:10:12;9.45;;;3.13;;
26253;SDS011;53339;51.378;0.094;2024-02-26T06:12:44;9.85;;;3.10;;
26253;SDS011;53339;51.378;0.094;2024-02-26T06:15:11;5.30;;;3.13;;
26253;SDS011;53339;51.378;0.094;2024-02-26T06:17:39;7.50;;;2.70;;
26253;SDS011;53339;51.378;0.094;2024-02-26T06:20:07;5.85;;;4.82;;
26253;SDS011;53339;51.378;0.094;2024-02-26T06:22:40;4.97;;;3.75;;
26253;SDS011;53339;51.378;0.094;2024-02-26T06:25:08;3.20;;;1.77;;
26253;SDS011;53339;51.378;0.094;2024-02-26T06:27:36;6.35;;;5.32;;
26253;SDS011;53339;51.378;0.094;2024-02-26T06:30:03;6.93;;;2.67;;
26253;SDS011;53339;51.378;0.094;2024-02-26T06:32:32;6.55;;;2.58;;
26253;SDS011;53339;51.378;0.094;2024-02-26T06:34:59;5.55;;;5.00;;
26253;SDS011;53339;51.378;0.094;2024-02-26T06:37:28;8.10;;;7.18;;
26253;SDS011;53339;51.378;0.094;2024-02-26T06:39:56;5.90;;;3.78;;
26253;SDS011;53339;51.378;0.094;2024-02-26T06:42:23;5.47;;;2.55;;
26253;SDS011;53339;51.378;0.094;2024-02-26T06:44:51;14.35;;;3.85;;
26253;SDS011;53339;51.378;0.094;2024-02-26T06:47:19;9.15;;;2.38;;
26253;SDS011;53339;51.378;0.094;2024-02-26T06:49:47;6.07;;;5.57;;
26253;SDS011;53339;51.378;0.094;2024-02-26T06:52:15;7.35;;;4.22;;
26253;SDS011;53339;51.378;0.094;2024-02-26T06:54:42;3.47;;;1.75;;
26253;SDS011;53339;51.378;0.094;2024-02-26T06:57:10;5.63;;;3.28;;
26253;SDS011;53339;51.378;0.094;2024-02-26T06:59:38;4.28;;;2.88;;
26253;SDS011;53339;51.378;0.094;2024-02-26T07:02:05;5.22;;;4.82;;
26253;SDS011;53339;51.378;0.094;2024-02-26T07:04:33;8.25;;;6.13;;
26253;SDS011;53339;51.378;0.094;2024-02-26T07:07:01;4.32;;;2.55;;
26253;SDS011;53339;51.378;0.094;2024-02-26T07:09:28;4.13;;;2.65;;
26253;SDS011;53339;51.378;0.094;2024-02-26T07:11:56;7.70;;;4.65;;
26253;SDS011;53339;51.378;0.094;2024-02-26T07:14:27;6.82;;;5.00;;
26253;SDS011;53339;51.378;0.094;2024-02-26T07:16:56;3.72;;;2.05;;
26253;SDS011;53339;51.378;0.094;2024-02-26T07:19:29;5.07;;;4.22;;
26253;SDS011;53339;51.378;0.094;2024-02-26T07:21:57;4.53;;;2.13;;
26253;SDS011;53339;51.378;0.094;2024-02-26T07:24:25;5.50;;;4.88;;
26253;SDS011;53339;51.378;0.094;2024-02-26T07:26:52;10.85;;;2.50;;
26253;SDS011;53339;51.378;0.094;2024-02-26T07:29:22;5.20;;;1.90;;
26253;SDS011;53339;51.378;0.094;2024-02-26T07:31:50;4.93;;;4.47;;
26253;SDS011;53339;51.378;0.094;2024-02-26T07:34:18;6.28;;;5.70;;
26253;SDS011;53339;51.378;0.094;2024-02-26T07:36:46;5.75;;;5.28;;
26253;SDS011;53339;51.378;0.094;2024-02-26T07:39:13;6.65;;;6.07;;
26253;SDS011;53339;51.378;0.094;2024-02-26T07:41:46;8.38;;;5.28;;
26253;SDS011;53339;51.378;0.094;2024-02-26T07:44:17;6.53;;;5.00;;
26253;SDS011;53339;51.378;0.094;2024-02-26T07:46:46;5.65;;;5.15;;
26253;SDS011;53339;51.378;0.094;2024-02-26T07:49:14;5.53;;;1.98;;
26253;SDS011;53339;51.378;0.094;2024-02-26T07:51:42;3.42;;;1.60;;
26253;SDS011;53339;51.378;0.094;2024-02-26T07:54:09;4.20;;;2.05;;
26253;SDS011;53339;51.378;0.094;2024-02-26T07:56:37;2.75;;;1.52;;
26253;SDS011;53339;51.378;0.094;2024-02-26T07:59:08;2.78;;;1.73;;
26253;SDS011;53339;51.378;0.094;2024-02-26T08:01:36;10.82;;;3.22;;
26253;SDS011;53339;51.378;0.094;2024-02-26T08:04:06;7.05;;;4.85;;
26253;SDS011;53339;51.378;0.094;2024-02-26T08:06:34;3.80;;;1.77;;
26253;SDS011;53339;51.378;0.094;2024-02-26T08:09:04;4.45;;;4.15;;
26253;SDS011;53339;51.378;0.094;2024-02-26T08:11:31;5.18;;;3.75;;
26253;SDS011;53339;51.378;0.094;2024-02-26T08:13:59;6.53;;;5.93;;
26253;SDS011;53339;51.378;0.094;2024-02-26T08:16:27;4.57;;;4.18;;
26253;SDS011;53339;51.378;0.094;2024-02-26T08:18:55;5.43;;;2.47;;
26253;SDS011;53339;51.378;0.094;2024-02-26T08:21:23;3.33;;;2.38;;
26253;SDS011;53339;51.378;0.094;2024-02-26T08:23:50;2.10;;;1.65;;
26253;SDS011;53339;51.378;0.094;2024-02-26T08:26:18;6.15;;;4.85;;
26253;SDS011;53339;51.378;0.094;2024-02-26T08:28:47;4.88;;;4.35;;
26253;SDS011;53339;51.378;0.094;2024-02-26T08:31:16;3.10;;;1.40;;
26253;SDS011;53339;51.378;0.094;2024-02-26T08:33:44;3.53;;;1.88;;
26253;SDS011;53339;51.378;0.094;2024-02-26T08:36:11;7.55;;;5.63;;
26253;SDS011;53339;51.378;0.094;2024-02-26T08:38:40;4.03;;;2.15;;
26253;SDS011;53339;51.378;0.094;2024-02-26T08:41:07;2.42;;;2.22;;
26253;SDS011;53339;51.378;0.094;2024-02-26T08:43:35;6.68;;;4.18;;
26253;SDS011;53339;51.378;0.094;2024-02-26T08:46:03;5.38;;;4.50;;
26253;SDS011;53339;51.378;0.094;2024-02-26T08:48:30;4.53;;;4.13;;
26253;SDS011;53339;51.378;0.094;2024-02-26T08:50:58;2.72;;;1.92;;
26253;SDS011;53339;51.378;0.094;2024-02-26T08:53:26;2.20;;;2.05;;
26253;SDS011;53339;51.378;0.094;2024-02-26T08:55:57;4.80;;;4.40;;
26253;SDS011;53339;51.378;0.094;2024-02-26T08:58:26;3.03;;;2.45;;
26253;SDS011;53339;51.378;0.094;2024-02-26T09:00:55;4.72;;;4.32;;
26253;SDS011;53339;51.378;0.094;2024-02-26T09:03:22;4.85;;;4.38;;
26253;SDS011;53339;51.378;0.094;2024-02-26T09:05:50;2.63;;;1.35;;
26253;SDS011;53339;51.378;0.094;2024-02-26T09:08:18;7.45;;;4.28;;
26253;SDS011;53339;51.378;0.094;2024-02-26T09:10:49;4.32;;;3.92;;
26253;SDS011;53339;51.378;0.094;2024-02-26T09:13:17;7.45;;;5.30;;
26253;SDS011;53339;51.378;0.094;2024-02-26T09:15:45;3.08;;;1.85;;
26253;SDS011;53339;51.378;0.094;2024-02-26T09:18:13;5.15;;;4.75;;
26253;SDS011;53339;51.378;0.094;2024-02-26T09:20:42;6.68;;;4.38;;
26253;SDS011;53339;51.378;0.094;2024-02-26T09:23:09;5.93;;;3.90;;
26253;SDS011;53339;51.378;0.094;2024-02-26T09:25:37;5.63;;;5.18;;
26253;SDS011;53339;51.378;0.094;2024-02-26T09:28:07;5.53;;;4.15;;
26253;SDS011;53339;51.378;0.094;2024-02-26T09:30:35;5.55;;;5.03;;
26253;SDS011;53339;51.378;0.094;2024-02-26T09:33:03;3.80;;;3.50;;
26253;SDS011;53339;51.378;0.094;2024-02-26T09:35:31;5.72;;;5.25;;
26253;SDS011;53339;51.378;0.094;2024-02-26T09:37:59;4.80;;;4.40;;
26253;SDS011;53339;51.378;0.094;2024-02-26T09:40:26;2.22;;;2.03;;
26253;SDS011;53339;51.378;0.094;2024-02-26T09:42:59;5.25;;;4.38;;
26253;SDS011;53339;51.378;0.094;2024-02-26T09:45:28;5.53;;;4.97;;
26253;SDS011;53339;51.378;0.094;2024-02-26T09:47:59;5.57;;;2.17;;
26253;SDS011;53339;51.378;0.094;2024-02-26T09:50:31;3.92;;;3.60;;
26253;SDS011;53339;51.378;0.094;2024-02-26T09:52:59;1.60;;;1.38;;
26253;SDS011;53339;51.378;0.094;2024-02-26T09:55:29;5.68;;;4.45;;
26253;SDS011;53339;51.378;0.094;2024-02-26T09:57:57;5.18;;;4.03;;
26253;SDS011;53339;51.378;0.094;2024-02-26T10:00:25;7.43;;;5.50;;
26253;SDS011;53339;51.378;0.094;2024-02-26T10:03:03;3.15;;;1.27;;
26253;SDS011;53339;51.378;0.094;2024-02-26T10:05:33;3.47;;;1.92;;
26253;SDS011;53339;51.378;0.094;2024-02-26T10:08:02;3.10;;;1.88;;
26253;SDS011;53339;51.378;0.094;2024-02-26T10:10:31;2.78;;;1.50;;
26253;SDS011;53339;51.378;0.094;2024-02-26T10:13:00;5.07;;;4.70;;
26253;SDS011;53339;51.378;0.094;2024-02-26T10:15:28;2.80;;;1.73;;
26253;SDS011;53339;51.378;0.094;2024-02-26T10:17:56;6.57;;;5.97;;
26253;SDS011;53339;51.378;0.094;2024-02-26T10:20:24;2.30;;;2.08;;
26253;SDS011;53339;51.378;0.094;2024-02-26T10:22:53;6.00;;;1.30;;
26253;SDS011;53339;51.378;0.094;2024-02-26T10:25:21;1.73;;;1.63;;
26253;SDS011;53339;51.378;0.094;2024-02-26T10:27:49;4.90;;;4.45;;
26253;SDS011;53339;51.378;0.094;2024-02-26T10:30:17;2.03;;;1.33;;
26253;SDS011;53339;51.378;0.094;2024-02-26T10:32:49;4.75;;;4.40;;
26253;SDS011;53339;51.378;0.094;2024-02-26T10:35:18;1.92;;;1.23;;
26253;SDS011;53339;51.378;0.094;2024-02-26T10:37:50;3.90;;;3.58;;
26253;SDS011;53339;51.378;0.094;2024-02-26T10:40:18;2.35;;;2.03;;
26253;SDS011;53339;51.378;0.094;2024-02-26T10:42:46;2.13;;;1.35;;
26253;SDS011;53339;51.378;0.094;2024-02-26T10:45:13;5.10;;;4.78;;
26253;SDS011;53339;51.378;0.094;2024-02-26T10:47:41;5.20;;;1.83;;
26253;SDS011;53339;51.378;0.094;2024-02-26T10:50:10;2.38;;;1.65;;
26253;SDS011;53339;51.378;0.094;2024-02-26T10:52:42;1.58;;;1.40;;
26253;SDS011;53339;51.378;0.094;2024-02-26T10:55:15;4.10;;;2.05;;
26253;SDS011;53339;51.378;0.094;2024-02-26T10:57:47;9.20;;;2.17;;
26253;SDS011;53339;51.378;0.094;2024-02-26T11:00:16;4.88;;;3.50;;
26253;SDS011;53339;51.378;0.094;2024-02-26T11:02:44;6.97;;;6.28;;
26253;SDS011;53339;51.378;0.094;2024-02-26T11:05:16;6.60;;;3.83;;
26253;SDS011;53339;51.378;0.094;2024-02-26T11:07:44;9.82;;;7.80;;
26253;SDS011;53339;51.378;0.094;2024-02-26T11:10:17;2.67;;;2.35;;
26253;SDS011;53339;51.378;0.094;2024-02-26T11:12:45;4.63;;;3.55;;
26253;SDS011;53339;51.378;0.094;2024-02-26T11:15:13;4.50;;;2.95;;
26253;SDS011;53339;51.378;0.094;2024-02-26T11:17:41;1.63;;;1.27;;
26253;SDS011;53339;51.378;0.094;2024-02-26T11:20:11;8.60;;;5.85;;
26253;SDS011;53339;51.378;0.094;2024-02-26T11:22:41;12.38;;;4.03;;
26253;SDS011;53339;51.378;0.094;2024-02-26T11:25:09;6.93;;;4.13;;
26253;SDS011;53339;51.378;0.094;2024-02-26T11:27:45;5.13;;;3.38;;
26253;SDS011;53339;51.378;0.094;2024-02-26T11:30:16;5.85;;;5.35;;
26253;SDS011;53339;51.378;0.094;2024-02-26T11:32:47;4.65;;;4.20;;
26253;SDS011;53339;51.378;0.094;2024-02-26T11:35:15;4.30;;;2.65;;
26253;SDS011;53339;51.378;0.094;2024-02-26T11:37:54;7.03;;;3.88;;
26253;SDS011;53339;51.378;0.094;2024-02-26T11:40:23;7.30;;;5.50;;
26253;SDS011;53339;51.378;0.094;2024-02-26T11:42:55;3.55;;;2.45;;
26253;SDS011;53339;51.378;0.094;2024-02-26T11:46:09;6.45;;;4.75;;
26253;SDS011;53339;51.378;0.094;2024-02-26T11:48:14;6.30;;;5.75;;
26253;SDS011;53339;51.378;0.094;2024-02-26T11:55:48;4.20;;;3.28;;
26253;SDS011;53339;51.378;0.094;2024-02-26T11:58:35;4.93;;;4.45;;
26253;SDS011;53339;51.378;0.094;2024-02-26T12:04:21;4.05;;;1.77;;
26253;SDS011;53339;51.378;0.094;2024-02-26T12:06:56;4.40;;;4.00;;
26253;SDS011;53339;51.378;0.094;2024-02-26T12:09:33;4.57;;;4.20;;
26253;SDS011;53339;51.378;0.094;2024-02-26T12:12:02;4.72;;;4.32;;
26253;SDS011;53339;51.378;0.094;2024-02-26T12:14:37;5.07;;;2.25;;
26253;SDS011;53339;51.378;0.094;2024-02-26T12:17:25;4.97;;;4.47;;
26253;SDS011;53339;51.378;0.094;2024-02-26T12:19:54;4.53;;;4.15;;
26253;SDS011;53339;51.378;0.094;2024-02-26T12:22:34;4.70;;;4.22;;
26253;SDS011;53339;51.378;0.094;2024-02-26T12:25:04;4.53;;;4.13;;
26253;SDS011;53339;51.378;0.094;2024-02-26T12:27:35;4.72;;;4.00;;
26253;SDS011;53339;51.378;0.094;2024-02-26T12:30:03;4.88;;;4.47;;
26253;SDS011;53339;51.378;0.094;2024-02-26T12:32:31;4.75;;;4.32;;
26253;SDS011;53339;51.378;0.094;2024-02-26T12:34:59;5.03;;;3.88;;
26253;SDS011;53339;51.378;0.094;2024-02-26T12:37:27;3.20;;;2.90;;
26253;SDS011;53339;51.378;0.094;2024-02-26T12:39:55;5.53;;;4.95;;
26253;SDS011;53339;51.378;0.094;2024-02-26T12:42:23;2.67;;;1.65;;
26253;SDS011;53339;51.378;0.094;2024-02-26T12:44:52;3.80;;;3.53;;
26253;SDS011;53339;51.378;0.094;2024-02-26T12:47:19;3.30;;;1.50;;
26253;SDS011;53339;51.378;0.094;2024-02-26T12:49:47;4.55;;;4.15;;
26253;SDS011;53339;51.378;0.094;2024-02-26T12:52:16;2.63;;;1.40;;
26253;SDS011;53339;51.378;0.094;2024-02-26T12:54:44;3.95;;;3.70;;
26253;SDS011;53339;51.378;0.094;2024-02-26T12:57:12;5.90;;;5.20;;
26253;SDS011;53339;51.378;0.094;2024-02-26T12:59:43;5.18;;;3.08;;
26253;SDS011;53339;51.378;0.094;2024-02-26T13:02:12;7.00;;;4.70;;
26253;SDS011;53339;51.378;0.094;2024-02-26T13:04:39;2.75;;;2.55;;
26253;SDS011;53339;51.378;0.094;2024-02-26T13:07:08;3.55;;;1.85;;
26253;SDS011;53339;51.378;0.094;2024-02-26T13:09:36;5.63;;;5.13;;
26253;SDS011;53339;51.378;0.094;2024-02-26T13:12:05;3.03;;;2.08;;
26253;SDS011;53339;51.378;0.094;2024-02-26T13:14:34;3.00;;;2.78;;
26253;SDS011;53339;51.378;0.094;2024-02-26T13:17:02;2.03;;;1.83;;
26253;SDS011;53339;51.378;0.094;2024-02-26T13:19:30;4.55;;;4.13;;
26253;SDS011;53339;51.378;0.094;2024-02-26T13:22:04;5.13;;;4.72;;
26253;SDS011;53339;51.378;0.094;2024-02-26T13:24:34;4.72;;;4.32;;
26253;SDS011;53339;51.378;0.094;2024-02-26T13:27:02;4.50;;;3.80;;
26253;SDS011;53339;51.378;0.094;2024-02-26T13:29:32;4.25;;;1.80;;
26253;SDS011;53339;51.378;0.094;2024-02-26T13:32:00;5.95;;;5.45;;
26253;SDS011;53339;51.378;0.094;2024-02-26T13:34:28;4.53;;;2.15;;
26253;SDS011;53339;51.378;0.094;2024-02-26T13:36:57;4.55;;;2.03;;
26253;SDS011;53339;51.378;0.094;2024-02-26T13:39:26;5.20;;;1.50;;
26253;SDS011;53339;51.378;0.094;2024-02-26T13:41:54;4.35;;;3.97;;
26253;SDS011;53339;51.378;0.094;2024-02-26T13:44:24;3.53;;;1.52;;
26253;SDS011;53339;51.378;0.094;2024-02-26T13:46:51;2.25;;;1.67;;
26253;SDS011;53339;51.378;0.094;2024-02-26T13:49:19;4.60;;;4.15;;
26253;SDS011;53339;51.378;0.094;2024-02-26T13:51:47;3.45;;;1.65;;
26253;SDS011;53339;51.378;0.094;2024-02-26T13:54:14;4.20;;;3.90;;
26253;SDS011;53339;51.378;0.094;2024-02-26T13:56:42;3.50;;;1.45;;
26253;SDS011;53339;51.378;0.094;2024-02-26T13:59:13;7.38;;;6.68;;
26253;SDS011;53339;51.378;0.094;2024-02-26T14:01:41;3.85;;;1.60;;
26253;SDS011;53339;51.378;0.094;2024-02-26T14:04:10;1.38;;;1.17;;
26253;SDS011;53339;51.378;0.094;2024-02-26T14:06:38;7.60;;;6.78;;
26253;SDS011;53339;51.378;0.094;2024-02-26T14:09:06;1.98;;;1.17;;
26253;SDS011;53339;51.378;0.094;2024-02-26T14:11:34;4.32;;;1.02;;
26253;SDS011;53339;51.378;0.094;2024-02-26T14:14:02;5.18;;;4.78;;
26253;SDS011;53339;51.378;0.094;2024-02-26T14:16:30;1.90;;;1.60;;
26253;SDS011;53339;51.378;0.094;2024-02-26T14:18:58;6.13;;;3.97;;
26253;SDS011;53339;51.378;0.094;2024-02-26T14:21:26;4.75;;;3.88;;
26253;SDS011;53339;51.378;0.094;2024-02-26T14:23:54;6.25;;;3.60;;
26253;SDS011;53339;51.378;0.094;2024-02-26T14:26:23;4.28;;;3.80;;
26253;SDS011;53339;51.378;0.094;2024-02-26T14:28:51;3.83;;;3.53;;
26253;SDS011;53339;51.378;0.094;2024-02-26T14:31:18;3.35;;;1.40;;
26253;SDS011;53339;51.378;0.094;2024-02-26T14:33:46;4.65;;;4.15;;
26253;SDS011;53339;51.378;0.094;2024-02-26T14:36:17;7.03;;;5.03;;
26253;SDS011;53339;51.378;0.094;2024-02-26T14:38:44;3.90;;;2.70;;
26253;SDS011;53339;51.378;0.094;2024-02-26T14:41:12;6.47;;;5.28;;
26253;SDS011;53339;51.378;0.094;2024-02-26T14:43:40;3.97;;;3.47;;
26253;SDS011;53339;51.378;0.094;2024-02-26T14:46:10;6.28;;;3.97;;
26253;SDS011;53339;51.378;0.094;2024-02-26T14:48:37;4.88;;;4.38;;
26253;SDS011;53339;51.378;0.094;2024-02-26T14:51:05;5.65;;;3.35;;
26253;SDS011;53339;51.378;0.094;2024-02-26T14:53:33;3.95;;;1.60;;
26253;SDS011;53339;51.378;0.094;2024-02-26T14:56:03;2.95;;;1.40;;
26253;SDS011;53339;51.378;0.094;2024-02-26T14:58:35;4.57;;;2.88;;
26253;SDS011;53339;51.378;0.094;2024-02-26T15:01:03;3.90;;;3.60;;